Terminal Aerodrome Forecast
Issued by NWS

Home | Current Version | Previous Version | Text Only | Print | Product List | Glossary On
Versions: 1 2 3 4 5 6 7 8 9 10 11 12 13 14 15 16 17 18 19 20 21 22
000
FTUS43 KGRR 221100
TAFBTL
TAF
KBTL 221123Z 2212/2312 09004KT 1/4SM FG VV002
      TEMPO 2213/2215 3/4SM BR OVC004
     FM221500 09005KT 3SM BR OVC006
     FM221600 09006KT 5SM BR BKN015
     FM221800 08006KT 6SM HZ BKN025
     FM222000 08006KT P6SM BKN035
     FM230500 07004KT 3SM BR BKN015=

USA.gov is the U.S. government's official web portal to all federal, state and local government web resources and services.